sensor_id;sensor_type;location;lat;lon;timestamp;pressure;altitude;pressure_sealevel;temperature;humidity
78170;BME280;67412;49.892;14.490;2023-03-12T00:02:15;96776.06;;;-3.30;80.90
78170;BME280;67412;49.892;14.490;2023-03-12T00:04:40;96776.97;;;-3.28;80.46
78170;BME280;67412;49.892;14.490;2023-03-12T00:07:05;96776.41;;;-3.18;80.24
78170;BME280;67412;49.892;14.490;2023-03-12T00:09:37;96786.91;;;-3.31;80.02
78170;BME280;67412;49.892;14.490;2023-03-12T00:12:04;96784.72;;;-3.20;79.93
78170;BME280;67412;49.892;14.490;2023-03-12T00:14:30;96781.50;;;-3.16;79.92
78170;BME280;67412;49.892;14.490;2023-03-12T00:16:56;96772.31;;;-3.16;79.77
78170;BME280;67412;49.892;14.490;2023-03-12T00:19:21;96767.78;;;-3.26;79.59
78170;BME280;67412;49.892;14.490;2023-03-12T00:21:46;96776.91;;;-3.29;79.72
78170;BME280;67412;49.892;14.490;2023-03-12T00:24:12;96787.09;;;-3.25;79.70
78170;BME280;67412;49.892;14.490;2023-03-12T00:26:37;96777.97;;;-3.23;79.28
78170;BME280;67412;49.892;14.490;2023-03-12T00:29:03;96786.28;;;-3.24;79.32
78170;BME280;67412;49.892;14.490;2023-03-12T00:31:30;96790.31;;;-3.29;79.58
78170;BME280;67412;49.892;14.490;2023-03-12T00:33:57;96788.50;;;-3.33;79.62
78170;BME280;67412;49.892;14.490;2023-03-12T00:36:26;96794.25;;;-3.37;80.07
78170;BME280;67412;49.892;14.490;2023-03-12T00:38:52;96795.25;;;-3.32;80.06
78170;BME280;67412;49.892;14.490;2023-03-12T00:41:18;96780.34;;;-3.26;79.87
78170;BME280;67412;49.892;14.490;2023-03-12T00:43:48;96788.03;;;-3.21;79.72
78170;BME280;67412;49.892;14.490;2023-03-12T00:46:14;96797.22;;;-3.22;79.84
78170;BME280;67412;49.892;14.490;2023-03-12T00:48:39;96798.88;;;-3.22;79.45
78170;BME280;67412;49.892;14.490;2023-03-12T00:51:05;96805.59;;;-3.23;79.80
78170;BME280;67412;49.892;14.490;2023-03-12T00:53:30;96804.25;;;-3.12;79.39
78170;BME280;67412;49.892;14.490;2023-03-12T00:55:56;96805.91;;;-3.12;78.85
78170;BME280;67412;49.892;14.490;2023-03-12T00:58:21;96808.44;;;-3.11;78.73
78170;BME280;67412;49.892;14.490;2023-03-12T01:00:46;96804.41;;;-3.06;78.58
78170;BME280;67412;49.892;14.490;2023-03-12T01:03:12;96807.63;;;-3.11;78.94
78170;BME280;67412;49.892;14.490;2023-03-12T01:05:38;96811.16;;;-3.05;78.61
78170;BME280;67412;49.892;14.490;2023-03-12T01:08:05;96816.66;;;-3.16;79.26
78170;BME280;67412;49.892;14.490;2023-03-12T01:10:31;96806.56;;;-3.18;79.19
78170;BME280;67412;49.892;14.490;2023-03-12T01:12:57;96815.88;;;-3.14;79.03
78170;BME280;67412;49.892;14.490;2023-03-12T01:15:22;96811.56;;;-3.19;79.11
78170;BME280;67412;49.892;14.490;2023-03-12T01:17:47;96813.38;;;-3.14;78.96
78170;BME280;67412;49.892;14.490;2023-03-12T01:20:13;96823.16;;;-3.23;79.16
78170;BME280;67412;49.892;14.490;2023-03-12T01:22:38;96823.03;;;-3.26;79.32
78170;BME280;67412;49.892;14.490;2023-03-12T01:25:04;96821.38;;;-3.25;79.29
78170;BME280;67412;49.892;14.490;2023-03-12T01:27:30;96816.97;;;-3.34;79.71
78170;BME280;67412;49.892;14.490;2023-03-12T01:29:55;96810.84;;;-3.42;80.05
78170;BME280;67412;49.892;14.490;2023-03-12T01:32:21;96818.16;;;-3.48;80.04
78170;BME280;67412;49.892;14.490;2023-03-12T01:34:46;96822.16;;;-3.55;80.43
78170;BME280;67412;49.892;14.490;2023-03-12T01:37:12;96817.03;;;-3.58;80.77
78170;BME280;67412;49.892;14.490;2023-03-12T01:39:37;96826.38;;;-3.54;80.09
78170;BME280;67412;49.892;14.490;2023-03-12T01:42:03;96814.47;;;-3.59;80.08
78170;BME280;67412;49.892;14.490;2023-03-12T01:44:28;96816.78;;;-3.65;80.06
78170;BME280;67412;49.892;14.490;2023-03-12T01:46:53;96823.69;;;-3.58;79.45
78170;BME280;67412;49.892;14.490;2023-03-12T01:52:06;96819.44;;;-3.61;79.02
78170;BME280;67412;49.892;14.490;2023-03-12T01:54:42;96816.84;;;-3.64;79.01
78170;BME280;67412;49.892;14.490;2023-03-12T01:57:13;96823.16;;;-3.75;79.91
78170;BME280;67412;49.892;14.490;2023-03-12T01:59:48;96832.44;;;-3.98;79.93
78170;BME280;67412;49.892;14.490;2023-03-12T02:02:14;96831.38;;;-4.04;80.01
78170;BME280;67412;49.892;14.490;2023-03-12T02:04:41;96837.31;;;-4.02;80.65
78170;BME280;67412;49.892;14.490;2023-03-12T02:07:13;96834.31;;;-4.16;79.50
78170;BME280;67412;49.892;14.490;2023-03-12T02:09:41;96834.59;;;-4.32;79.26
78170;BME280;67412;49.892;14.490;2023-03-12T02:12:08;96841.91;;;-4.14;80.70
78170;BME280;67412;49.892;14.490;2023-03-12T02:14:33;96836.38;;;-4.04;79.88
78170;BME280;67412;49.892;14.490;2023-03-12T02:16:59;96840.09;;;-4.18;80.00
78170;BME280;67412;49.892;14.490;2023-03-12T02:22:10;96829.59;;;-4.32;80.19
78170;BME280;67412;49.892;14.490;2023-03-12T02:24:51;96836.69;;;-4.44;80.80
78170;BME280;67412;49.892;14.490;2023-03-12T02:27:18;96837.63;;;-4.41;80.48
78170;BME280;67412;49.892;14.490;2023-03-12T02:29:46;96828.13;;;-4.49;80.08
78170;BME280;67412;49.892;14.490;2023-03-12T02:32:20;96837.16;;;-4.54;80.34
78170;BME280;67412;49.892;14.490;2023-03-12T02:34:46;96837.59;;;-4.64;80.84
78170;BME280;67412;49.892;14.490;2023-03-12T02:37:12;96841.44;;;-4.74;80.42
78170;BME280;67412;49.892;14.490;2023-03-12T02:39:38;96846.38;;;-4.75;81.62
78170;BME280;67412;49.892;14.490;2023-03-12T02:42:05;96850.94;;;-4.65;81.60
78170;BME280;67412;49.892;14.490;2023-03-12T02:44:31;96857.44;;;-4.70;81.04
78170;BME280;67412;49.892;14.490;2023-03-12T02:46:59;96854.03;;;-4.72;81.82
78170;BME280;67412;49.892;14.490;2023-03-12T02:49:27;96858.75;;;-4.80;82.97
78170;BME280;67412;49.892;14.490;2023-03-12T02:51:55;96862.22;;;-4.76;82.14
78170;BME280;67412;49.892;14.490;2023-03-12T02:54:21;96871.22;;;-4.81;82.73
78170;BME280;67412;49.892;14.490;2023-03-12T02:56:48;96866.38;;;-4.77;82.60
78170;BME280;67412;49.892;14.490;2023-03-12T02:59:14;96867.16;;;-4.78;82.24
78170;BME280;67412;49.892;14.490;2023-03-12T03:01:40;96875.16;;;-4.66;81.66
78170;BME280;67412;49.892;14.490;2023-03-12T03:04:07;96865.72;;;-4.49;82.59
78170;BME280;67412;49.892;14.490;2023-03-12T03:06:33;96861.59;;;-4.71;81.88
78170;BME280;67412;49.892;14.490;2023-03-12T03:08:59;96860.91;;;-4.67;82.40
78170;BME280;67412;49.892;14.490;2023-03-12T03:11:25;96863.97;;;-4.74;82.52
78170;BME280;67412;49.892;14.490;2023-03-12T03:13:51;96873.22;;;-4.73;81.45
78170;BME280;67412;49.892;14.490;2023-03-12T03:16:16;96880.66;;;-4.74;81.93
78170;BME280;67412;49.892;14.490;2023-03-12T03:18:42;96874.50;;;-4.82;82.25
78170;BME280;67412;49.892;14.490;2023-03-12T03:21:08;96876.97;;;-4.84;82.43
78170;BME280;67412;49.892;14.490;2023-03-12T03:23:34;96881.91;;;-4.85;82.66
78170;BME280;67412;49.892;14.490;2023-03-12T03:26:00;96882.13;;;-4.79;82.42
78170;BME280;67412;49.892;14.490;2023-03-12T03:28:28;96877.66;;;-4.88;81.85
78170;BME280;67412;49.892;14.490;2023-03-12T03:30:55;96881.56;;;-4.95;81.90
78170;BME280;67412;49.892;14.490;2023-03-12T03:33:29;96883.22;;;-4.95;82.22
78170;BME280;67412;49.892;14.490;2023-03-12T03:35:56;96884.75;;;-4.99;82.31
78170;BME280;67412;49.892;14.490;2023-03-12T03:38:24;96879.00;;;-4.96;81.90
78170;BME280;67412;49.892;14.490;2023-03-12T03:40:49;96884.88;;;-4.96;82.00
78170;BME280;67412;49.892;14.490;2023-03-12T03:43:14;96884.97;;;-4.93;82.87
78170;BME280;67412;49.892;14.490;2023-03-12T03:45:40;96886.25;;;-4.81;81.76
78170;BME280;67412;49.892;14.490;2023-03-12T03:48:05;96893.66;;;-4.84;81.86
78170;BME280;67412;49.892;14.490;2023-03-12T03:50:31;96891.38;;;-4.78;80.54
78170;BME280;67412;49.892;14.490;2023-03-12T03:52:56;96893.28;;;-4.94;81.08
78170;BME280;67412;49.892;14.490;2023-03-12T03:55:22;96897.13;;;-5.02;81.44
78170;BME280;67412;49.892;14.490;2023-03-12T03:57:47;96896.47;;;-4.98;81.79
78170;BME280;67412;49.892;14.490;2023-03-12T04:00:13;96903.00;;;-5.01;82.47
78170;BME280;67412;49.892;14.490;2023-03-12T04:02:42;96907.34;;;-4.97;82.83
78170;BME280;67412;49.892;14.490;2023-03-12T04:05:08;96909.81;;;-4.99;81.90
78170;BME280;67412;49.892;14.490;2023-03-12T04:07:33;96917.25;;;-5.00;81.91
78170;BME280;67412;49.892;14.490;2023-03-12T04:09:59;96916.19;;;-5.05;81.23
78170;BME280;67412;49.892;14.490;2023-03-12T04:12:24;96915.31;;;-5.07;82.55
78170;BME280;67412;49.892;14.490;2023-03-12T04:14:51;96914.25;;;-5.12;82.21
78170;BME280;67412;49.892;14.490;2023-03-12T04:17:17;96921.59;;;-5.17;82.65
78170;BME280;67412;49.892;14.490;2023-03-12T04:19:43;96924.59;;;-5.25;83.26
78170;BME280;67412;49.892;14.490;2023-03-12T04:22:08;96929.59;;;-5.25;83.24
78170;BME280;67412;49.892;14.490;2023-03-12T04:24:34;96932.81;;;-5.28;83.13
78170;BME280;67412;49.892;14.490;2023-03-12T04:26:59;96936.19;;;-5.27;83.42
78170;BME280;67412;49.892;14.490;2023-03-12T04:29:25;96929.84;;;-5.19;84.36
78170;BME280;67412;49.892;14.490;2023-03-12T04:31:50;96929.94;;;-5.16;84.00
78170;BME280;67412;49.892;14.490;2023-03-12T04:34:15;96936.00;;;-5.11;83.93
78170;BME280;67412;49.892;14.490;2023-03-12T04:36:41;96938.13;;;-5.20;83.88
78170;BME280;67412;49.892;14.490;2023-03-12T04:39:06;96944.66;;;-5.24;84.24
78170;BME280;67412;49.892;14.490;2023-03-12T04:41:33;96935.59;;;-5.22;84.30
78170;BME280;67412;49.892;14.490;2023-03-12T04:43:59;96937.72;;;-5.31;83.77
78170;BME280;67412;49.892;14.490;2023-03-12T04:46:24;96941.31;;;-5.45;82.70
78170;BME280;67412;49.892;14.490;2023-03-12T04:48:50;96943.50;;;-5.53;83.28
78170;BME280;67412;49.892;14.490;2023-03-12T04:51:15;96941.00;;;-5.53;83.30
78170;BME280;67412;49.892;14.490;2023-03-12T04:53:40;96940.00;;;-5.56;84.02
78170;BME280;67412;49.892;14.490;2023-03-12T04:56:06;96932.50;;;-5.56;84.22
78170;BME280;67412;49.892;14.490;2023-03-12T04:58:31;96932.19;;;-5.64;84.06
78170;BME280;67412;49.892;14.490;2023-03-12T05:00:57;96932.84;;;-5.68;84.47
78170;BME280;67412;49.892;14.490;2023-03-12T05:03:22;96942.44;;;-5.58;84.92
78170;BME280;67412;49.892;14.490;2023-03-12T05:05:48;96945.69;;;-5.60;83.91
78170;BME280;67412;49.892;14.490;2023-03-12T05:08:13;96941.47;;;-5.61;84.61
78170;BME280;67412;49.892;14.490;2023-03-12T05:10:40;96950.47;;;-5.65;84.25
78170;BME280;67412;49.892;14.490;2023-03-12T05:13:16;96948.97;;;-5.61;83.91
78170;BME280;67412;49.892;14.490;2023-03-12T05:15:42;96955.69;;;-5.60;84.39
78170;BME280;67412;49.892;14.490;2023-03-12T05:18:08;96950.56;;;-5.63;83.76
78170;BME280;67412;49.892;14.490;2023-03-12T05:20:33;96952.94;;;-5.66;84.44
78170;BME280;67412;49.892;14.490;2023-03-12T05:22:58;96951.88;;;-5.71;84.48
78170;BME280;67412;49.892;14.490;2023-03-12T05:25:24;96956.16;;;-5.69;85.24
78170;BME280;67412;49.892;14.490;2023-03-12T05:27:49;96954.25;;;-5.74;85.29
78170;BME280;67412;49.892;14.490;2023-03-12T05:30:14;96954.47;;;-5.70;84.99
78170;BME280;67412;49.892;14.490;2023-03-12T05:32:40;96954.91;;;-5.59;85.35
78170;BME280;67412;49.892;14.490;2023-03-12T05:35:05;96963.44;;;-5.54;85.64
78170;BME280;67412;49.892;14.490;2023-03-12T05:37:31;96954.34;;;-5.52;84.49
78170;BME280;67412;49.892;14.490;2023-03-12T05:39:56;96963.38;;;-5.56;84.54
78170;BME280;67412;49.892;14.490;2023-03-12T05:42:23;96966.88;;;-5.52;84.95
78170;BME280;67412;49.892;14.490;2023-03-12T05:44:48;96953.94;;;-5.42;84.44
78170;BME280;67412;49.892;14.490;2023-03-12T05:47:15;96948.38;;;-5.35;84.36
78170;BME280;67412;49.892;14.490;2023-03-12T05:49:40;96959.13;;;-5.38;84.38
78170;BME280;67412;49.892;14.490;2023-03-12T05:52:06;96965.34;;;-5.28;84.31
78170;BME280;67412;49.892;14.490;2023-03-12T05:54:32;96962.31;;;-5.21;84.51
78170;BME280;67412;49.892;14.490;2023-03-12T05:56:57;96960.09;;;-5.13;84.41
78170;BME280;67412;49.892;14.490;2023-03-12T05:59:23;96957.63;;;-4.93;84.25
78170;BME280;67412;49.892;14.490;2023-03-12T06:01:49;96958.13;;;-4.79;84.19
78170;BME280;67412;49.892;14.490;2023-03-12T06:04:14;96964.00;;;-4.58;85.34
78170;BME280;67412;49.892;14.490;2023-03-12T06:06:40;96949.53;;;-4.43;84.08
78170;BME280;67412;49.892;14.490;2023-03-12T06:09:05;96956.69;;;-4.29;83.72
78170;BME280;67412;49.892;14.490;2023-03-12T06:11:32;96952.06;;;-4.19;84.03
78170;BME280;67412;49.892;14.490;2023-03-12T06:13:58;96958.69;;;-3.97;83.82
78170;BME280;67412;49.892;14.490;2023-03-12T06:16:25;96951.50;;;-3.88;83.91
78170;BME280;67412;49.892;14.490;2023-03-12T06:18:54;96949.03;;;-3.63;83.58
78170;BME280;67412;49.892;14.490;2023-03-12T06:21:23;96946.50;;;-3.64;82.86
78170;BME280;67412;49.892;14.490;2023-03-12T06:23:49;96952.22;;;-3.68;82.27
78170;BME280;67412;49.892;14.490;2023-03-12T06:26:15;96946.78;;;-3.55;81.70
78170;BME280;67412;49.892;14.490;2023-03-12T06:28:40;96949.56;;;-3.48;82.17
78170;BME280;67412;49.892;14.490;2023-03-12T06:31:06;96958.75;;;-3.48;82.42
78170;BME280;67412;49.892;14.490;2023-03-12T06:33:33;96963.28;;;-3.38;82.44
78170;BME280;67412;49.892;14.490;2023-03-12T06:36:00;96966.59;;;-3.39;82.83
78170;BME280;67412;49.892;14.490;2023-03-12T06:38:27;96969.28;;;-3.33;82.51
78170;BME280;67412;49.892;14.490;2023-03-12T06:41:00;96965.13;;;-3.32;82.19
78170;BME280;67412;49.892;14.490;2023-03-12T06:43:27;96975.44;;;-3.25;82.08
78170;BME280;67412;49.892;14.490;2023-03-12T06:45:55;96963.72;;;-3.24;81.92
78170;BME280;67412;49.892;14.490;2023-03-12T06:48:21;96961.97;;;-3.27;82.27
78170;BME280;67412;49.892;14.490;2023-03-12T06:50:47;96961.47;;;-3.17;81.79
78170;BME280;67412;49.892;14.490;2023-03-12T06:53:13;96974.97;;;-3.13;82.17
78170;BME280;67412;49.892;14.490;2023-03-12T06:55:38;96976.09;;;-3.05;81.99
78170;BME280;67412;49.892;14.490;2023-03-12T06:58:04;96973.22;;;-2.90;81.55
78170;BME280;67412;49.892;14.490;2023-03-12T07:00:30;96979.34;;;-2.82;81.79
78170;BME280;67412;49.892;14.490;2023-03-12T07:02:56;96977.81;;;-2.77;82.43
78170;BME280;67412;49.892;14.490;2023-03-12T07:05:23;96985.75;;;-2.65;81.86
78170;BME280;67412;49.892;14.490;2023-03-12T07:07:49;96985.97;;;-2.58;81.79
78170;BME280;67412;49.892;14.490;2023-03-12T07:10:15;96982.22;;;-2.44;82.10
78170;BME280;67412;49.892;14.490;2023-03-12T07:12:40;96983.09;;;-2.15;81.39
78170;BME280;67412;49.892;14.490;2023-03-12T07:15:06;96978.75;;;-1.90;79.74
78170;BME280;67412;49.892;14.490;2023-03-12T07:17:31;96975.78;;;-1.77;79.51
78170;BME280;67412;49.892;14.490;2023-03-12T07:19:57;96974.50;;;-1.63;78.40
78170;BME280;67412;49.892;14.490;2023-03-12T07:22:22;96979.94;;;-1.48;78.39
78170;BME280;67412;49.892;14.490;2023-03-12T07:24:48;96978.69;;;-1.31;78.16
78170;BME280;67412;49.892;14.490;2023-03-12T07:27:15;96969.13;;;-1.13;77.99
78170;BME280;67412;49.892;14.490;2023-03-12T07:29:41;96976.41;;;-0.90;76.67
78170;BME280;67412;49.892;14.490;2023-03-12T07:32:06;96978.38;;;-0.77;76.15
78170;BME280;67412;49.892;14.490;2023-03-12T07:34:31;96978.38;;;-0.77;76.15
78170;BME280;67412;49.892;14.490;2023-03-12T07:36:57;96976.97;;;-0.66;75.54
78170;BME280;67412;49.892;14.490;2023-03-12T07:39:22;96977.19;;;-0.57;74.69
78170;BME280;67412;49.892;14.490;2023-03-12T07:41:48;96974.91;;;-0.45;74.88
78170;BME280;67412;49.892;14.490;2023-03-12T07:44:13;96973.47;;;-0.35;74.65
78170;BME280;67412;49.892;14.490;2023-03-12T07:46:39;96981.41;;;-0.19;73.29
78170;BME280;67412;49.892;14.490;2023-03-12T07:49:04;96980.81;;;-0.07;72.91
78170;BME280;67412;49.892;14.490;2023-03-12T07:51:30;96975.00;;;-0.05;72.74
78170;BME280;67412;49.892;14.490;2023-03-12T07:53:55;96978.78;;;0.16;72.37
78170;BME280;67412;49.892;14.490;2023-03-12T07:56:21;96985.66;;;0.23;71.89
78170;BME280;67412;49.892;14.490;2023-03-12T07:58:46;96978.31;;;0.33;72.03
78170;BME280;67412;49.892;14.490;2023-03-12T08:01:11;96974.22;;;0.40;72.42
78170;BME280;67412;49.892;14.490;2023-03-12T08:03:37;96977.84;;;0.54;72.06
78170;BME280;67412;49.892;14.490;2023-03-12T08:06:03;96980.63;;;0.68;70.09
78170;BME280;67412;49.892;14.490;2023-03-12T08:08:30;96980.03;;;0.81;71.46
78170;BME280;67412;49.892;14.490;2023-03-12T08:10:56;96981.78;;;0.83;70.50
78170;BME280;67412;49.892;14.490;2023-03-12T08:13:22;96979.25;;;0.83;70.73
78170;BME280;67412;49.892;14.490;2023-03-12T08:15:52;96973.47;;;0.89;70.04
78170;BME280;67412;49.892;14.490;2023-03-12T08:18:18;96971.00;;;0.93;70.04
78170;BME280;67412;49.892;14.490;2023-03-12T08:20:44;96973.59;;;0.96;70.23
78170;BME280;67412;49.892;14.490;2023-03-12T08:23:10;96981.94;;;0.92;70.38
78170;BME280;67412;49.892;14.490;2023-03-12T08:25:36;96969.25;;;0.91;70.56
78170;BME280;67412;49.892;14.490;2023-03-12T08:28:03;96972.56;;;0.85;70.52
78170;BME280;67412;49.892;14.490;2023-03-12T08:30:29;96965.88;;;0.89;69.28
78170;BME280;67412;49.892;14.490;2023-03-12T08:32:55;96975.22;;;0.94;69.87
78170;BME280;67412;49.892;14.490;2023-03-12T08:35:20;96979.63;;;1.05;70.15
78170;BME280;67412;49.892;14.490;2023-03-12T08:37:46;96965.50;;;1.16;68.73
78170;BME280;67412;49.892;14.490;2023-03-12T08:40:11;96970.69;;;1.25;68.39
78170;BME280;67412;49.892;14.490;2023-03-12T08:42:41;96963.97;;;1.27;68.18
78170;BME280;67412;49.892;14.490;2023-03-12T08:45:08;96967.63;;;1.44;69.96
78170;BME280;67412;49.892;14.490;2023-03-12T08:47:34;96964.47;;;1.59;68.18
78170;BME280;67412;49.892;14.490;2023-03-12T08:50:00;96963.84;;;1.73;66.52
78170;BME280;67412;49.892;14.490;2023-03-12T08:52:26;96970.94;;;1.97;65.45
78170;BME280;67412;49.892;14.490;2023-03-12T08:54:52;96970.22;;;2.06;63.18
78170;BME280;67412;49.892;14.490;2023-03-12T08:57:17;96970.22;;;2.06;64.30
78170;BME280;67412;49.892;14.490;2023-03-12T08:59:43;96968.59;;;2.14;64.33
78170;BME280;67412;49.892;14.490;2023-03-12T09:02:10;96968.66;;;2.17;60.15
78170;BME280;67412;49.892;14.490;2023-03-12T09:04:36;96967.09;;;2.29;62.72
78170;BME280;67412;49.892;14.490;2023-03-12T09:07:02;96969.94;;;2.55;63.05
78170;BME280;67412;49.892;14.490;2023-03-12T09:09:28;96964.28;;;2.77;63.24
78170;BME280;67412;49.892;14.490;2023-03-12T09:11:53;96961.97;;;3.02;63.21
78170;BME280;67412;49.892;14.490;2023-03-12T09:14:18;96952.81;;;3.19;59.72
78170;BME280;67412;49.892;14.490;2023-03-12T09:16:44;96954.53;;;3.20;60.04
78170;BME280;67412;49.892;14.490;2023-03-12T09:19:09;96954.28;;;2.92;57.59
78170;BME280;67412;49.892;14.490;2023-03-12T09:21:35;96958.47;;;2.87;57.12
78170;BME280;67412;49.892;14.490;2023-03-12T09:24:00;96961.00;;;2.89;56.93
78170;BME280;67412;49.892;14.490;2023-03-12T09:26:26;96960.25;;;2.98;55.01
78170;BME280;67412;49.892;14.490;2023-03-12T09:28:51;96946.53;;;2.79;54.31
78170;BME280;67412;49.892;14.490;2023-03-12T09:31:17;96954.28;;;2.92;54.17
78170;BME280;67412;49.892;14.490;2023-03-12T09:33:43;96946.56;;;2.80;53.04
78170;BME280;67412;49.892;14.490;2023-03-12T09:36:08;96947.41;;;2.81;54.05
78170;BME280;67412;49.892;14.490;2023-03-12T09:38:34;96954.25;;;2.89;55.97
78170;BME280;67412;49.892;14.490;2023-03-12T09:41:02;96946.47;;;2.74;53.47
78170;BME280;67412;49.892;14.490;2023-03-12T09:43:35;96949.75;;;2.61;54.14
78170;BME280;67412;49.892;14.490;2023-03-12T09:46:02;96963.28;;;2.62;51.89
78170;BME280;67412;49.892;14.490;2023-03-12T09:48:36;96952.34;;;2.67;55.00
78170;BME280;67412;49.892;14.490;2023-03-12T09:51:05;96944.75;;;2.69;55.68
78170;BME280;67412;49.892;14.490;2023-03-12T09:53:36;96934.03;;;2.97;54.77
78170;BME280;67412;49.892;14.490;2023-03-12T09:56:10;96945.94;;;3.06;54.05
78170;BME280;67412;49.892;14.490;2023-03-12T09:58:38;96948.59;;;3.18;53.48
78170;BME280;67412;49.892;14.490;2023-03-12T10:01:28;96943.59;;;3.30;55.29
78170;BME280;67412;49.892;14.490;2023-03-12T10:09:26;96943.94;;;3.74;54.79
78170;BME280;67412;49.892;14.490;2023-03-12T10:15:16;96937.06;;;3.58;52.54
78170;BME280;67412;49.892;14.490;2023-03-12T10:18:01;96941.97;;;3.36;52.53
78170;BME280;67412;49.892;14.490;2023-03-12T10:20:45;96938.59;;;3.37;52.30
78170;BME280;67412;49.892;14.490;2023-03-12T10:27:10;96926.00;;;3.53;53.17
78170;BME280;67412;49.892;14.490;2023-03-12T10:31:36;96922.09;;;4.05;53.93
78170;BME280;67412;49.892;14.490;2023-03-12T10:34:22;96924.72;;;4.23;54.78
78170;BME280;67412;49.892;14.490;2023-03-12T10:36:49;96924.78;;;4.41;55.32
78170;BME280;67412;49.892;14.490;2023-03-12T10:39:17;96918.91;;;4.57;56.37
78170;BME280;67412;49.892;14.490;2023-03-12T10:41:45;96930.81;;;4.81;54.53
78170;BME280;67412;49.892;14.490;2023-03-12T10:44:19;96924.88;;;4.99;55.02
78170;BME280;67412;49.892;14.490;2023-03-12T10:49:26;96920.66;;;5.08;53.02
78170;BME280;67412;49.892;14.490;2023-03-12T10:51:53;96913.84;;;4.89;50.69
78170;BME280;67412;49.892;14.490;2023-03-12T10:54:20;96909.56;;;4.62;52.25
78170;BME280;67412;49.892;14.490;2023-03-12T10:56:49;96901.09;;;4.66;49.00
78170;BME280;67412;49.892;14.490;2023-03-12T10:59:26;96903.66;;;4.81;52.91
78170;BME280;67412;49.892;14.490;2023-03-12T11:01:52;96902.84;;;4.82;52.78
78170;BME280;67412;49.892;14.490;2023-03-12T11:04:26;96905.38;;;4.96;53.05
78170;BME280;67412;49.892;14.490;2023-03-12T11:09:28;96906.22;;;5.03;53.37
78170;BME280;67412;49.892;14.490;2023-03-12T11:11:54;96894.38;;;5.02;50.03
78170;BME280;67412;49.892;14.490;2023-03-12T11:14:25;96896.91;;;5.14;51.13
78170;BME280;67412;49.892;14.490;2023-03-12T11:16:52;96879.94;;;5.22;50.64
78170;BME280;67412;49.892;14.490;2023-03-12T11:21:56;96877.34;;;5.60;51.42
78170;BME280;67412;49.892;14.490;2023-03-12T11:24:23;96871.41;;;5.44;51.18
78170;BME280;67412;49.892;14.490;2023-03-12T11:29:23;96874.81;;;5.40;51.82
78170;BME280;67412;49.892;14.490;2023-03-12T11:31:56;96873.97;;;5.53;50.23
78170;BME280;67412;49.892;14.490;2023-03-12T11:34:26;96862.09;;;5.25;49.91
78170;BME280;67412;49.892;14.490;2023-03-12T11:48:37;96878.13;;;6.03;50.42
78170;BME280;67412;49.892;14.490;2023-03-12T12:01:35;96855.94;;;6.17;48.63
78170;BME280;67412;49.892;14.490;2023-03-12T12:17:46;96839.72;;;6.30;47.93
78170;BME280;67412;49.892;14.490;2023-03-12T12:20:22;96831.19;;;6.37;47.32
78170;BME280;67412;49.892;14.490;2023-03-12T12:23:05;96822.72;;;6.32;48.11
78170;BME280;67412;49.892;14.490;2023-03-12T12:26:04;96824.47;;;6.24;48.36
78170;BME280;67412;49.892;14.490;2023-03-12T12:31:36;96826.19;;;6.20;45.47
78170;BME280;67412;49.892;14.490;2023-03-12T12:37:47;96821.16;;;6.02;48.15
78170;BME280;67412;49.892;14.490;2023-03-12T12:45:51;96812.59;;;6.15;48.74
78170;BME280;67412;49.892;14.490;2023-03-12T12:48:20;96816.06;;;6.07;49.49
78170;BME280;67412;49.892;14.490;2023-03-12T12:50:48;96812.69;;;6.03;49.10
78170;BME280;67412;49.892;14.490;2023-03-12T12:53:22;96805.75;;;6.23;49.62
78170;BME280;67412;49.892;14.490;2023-03-12T12:55:52;96810.81;;;6.31;49.85
78170;BME280;67412;49.892;14.490;2023-03-12T13:00:47;96815.00;;;6.38;48.18
78170;BME280;67412;49.892;14.490;2023-03-12T13:03:15;96817.56;;;6.38;47.98
78170;BME280;67412;49.892;14.490;2023-03-12T13:13:42;96802.25;;;6.44;47.46
78170;BME280;67412;49.892;14.490;2023-03-12T13:16:39;96801.31;;;6.54;47.50
78170;BME280;67412;49.892;14.490;2023-03-12T13:27:11;96780.06;;;6.55;47.92
78170;BME280;67412;49.892;14.490;2023-03-12T13:29:40;96786.06;;;6.48;46.56
78170;BME280;67412;49.892;14.490;2023-03-12T13:32:35;96793.84;;;6.25;47.04
78170;BME280;67412;49.892;14.490;2023-03-12T13:48:14;96774.34;;;6.18;46.60
78170;BME280;67412;49.892;14.490;2023-03-12T13:50:49;96769.22;;;6.21;46.45
78170;BME280;67412;49.892;14.490;2023-03-12T13:53:23;96765.72;;;6.36;47.53
78170;BME280;67412;49.892;14.490;2023-03-12T13:55:59;96768.22;;;6.42;47.80
78170;BME280;67412;49.892;14.490;2023-03-12T13:58:26;96781.06;;;6.27;47.35
78170;BME280;67412;49.892;14.490;2023-03-12T14:00:59;96772.66;;;6.13;46.39
78170;BME280;67412;49.892;14.490;2023-03-12T14:03:40;96776.13;;;6.03;47.58
78170;BME280;67412;49.892;14.490;2023-03-12T14:06:18;96773.59;;;6.03;47.83
78170;BME280;67412;49.892;14.490;2023-03-12T14:14:04;96747.31;;;5.81;47.16
78170;BME280;67412;49.892;14.490;2023-03-12T14:16:45;96750.63;;;6.01;49.21
78170;BME280;67412;49.892;14.490;2023-03-12T14:19:15;96748.03;;;6.09;49.11
78170;BME280;67412;49.892;14.490;2023-03-12T14:21:43;96736.03;;;6.23;48.66
78170;BME280;67412;49.892;14.490;2023-03-12T14:24:34;96743.84;;;6.03;48.51
78170;BME280;67412;49.892;14.490;2023-03-12T14:27:03;96741.38;;;5.87;48.59
78170;BME280;67412;49.892;14.490;2023-03-12T14:29:36;96733.72;;;5.87;48.32
78170;BME280;67412;49.892;14.490;2023-03-12T14:32:05;96745.53;;;6.03;48.28
78170;BME280;67412;49.892;14.490;2023-03-12T14:34:38;96737.91;;;6.00;48.42
78170;BME280;67412;49.892;14.490;2023-03-12T14:37:19;96738.81;;;5.88;48.84
78170;BME280;67412;49.892;14.490;2023-03-12T14:39:53;96730.34;;;5.74;48.62
78170;BME280;67412;49.892;14.490;2023-03-12T14:42:23;96740.59;;;5.63;50.05
78170;BME280;67412;49.892;14.490;2023-03-12T14:47:22;96733.03;;;5.47;51.40
78170;BME280;67412;49.892;14.490;2023-03-12T14:49:47;96739.75;;;5.61;51.57
78170;BME280;67412;49.892;14.490;2023-03-12T14:52:24;96722.78;;;5.60;50.04
78170;BME280;67412;49.892;14.490;2023-03-12T14:57:23;96721.91;;;5.64;50.47
78170;BME280;67412;49.892;14.490;2023-03-12T15:00:14;96730.41;;;5.59;52.40